Time;durP1;ratioP1;P1;durP2;ratioP2;P2;SDS_P1;SDS_P2;PMS_P1;PMS_P2;Temp;Humidity;BMP_temperature;BMP_pressure;BME280_temperature;BME280_humidity;BME280_pressure;Samples;Min_cycle;Max_cycle;Signal;HPM_P1;HPM_P2
2023/08/17 00:00:50;;;;;;;6.15;4.47;;;18.90;99.90;;;;;;4986778;28;20212;-77
2023/08/17 00:03:18;;;;;;;5.70;3.90;;;19.00;99.90;;;;;;4988461;28;20200;-77
2023/08/17 00:05:46;;;;;;;7.30;4.25;;;19.10;99.90;;;;;;4981544;28;20204;-77
2023/08/17 00:08:13;;;;;;;5.03;4.15;;;18.90;99.90;;;;;;4988916;28;20200;-77
2023/08/17 00:10:41;;;;;;;5.18;4.40;;;19.00;99.90;;;;;;4990366;28;20223;-77
2023/08/17 00:13:08;;;;;;;6.55;3.83;;;19.00;99.90;;;;;;4992711;28;20226;-77
2023/08/17 00:15:37;;;;;;;5.65;3.80;;;19.00;99.90;;;;;;5004287;28;20820;-77
2023/08/17 00:18:05;;;;;;;4.80;3.67;;;19.10;99.90;;;;;;5007105;28;20204;-77
2023/08/17 00:20:32;;;;;;;4.47;4.07;;;19.00;99.90;;;;;;4982196;28;20197;-77
2023/08/17 00:23:00;;;;;;;5.05;3.95;;;18.80;99.90;;;;;;4986216;28;20220;-77
2023/08/17 00:25:27;;;;;;;4.78;4.00;;;18.80;99.90;;;;;;4988133;28;20208;-77
2023/08/17 00:27:54;;;;;;;5.10;3.80;;;18.70;99.90;;;;;;4986286;28;20181;-77
2023/08/17 00:30:22;;;;;;;6.55;4.22;;;18.70;99.90;;;;;;4983183;28;20211;-77
2023/08/17 00:32:51;;;;;;;4.90;3.92;;;18.70;99.90;;;;;;4984682;28;20235;-77
2023/08/17 00:35:20;;;;;;;5.45;4.13;;;18.80;99.90;;;;;;4989368;28;20193;-77
2023/08/17 00:37:48;;;;;;;4.03;3.63;;;18.80;99.90;;;;;;4991318;28;20204;-77
2023/08/17 00:40:15;;;;;;;4.35;3.55;;;19.00;99.90;;;;;;4984443;28;20207;-77
2023/08/17 00:42:43;;;;;;;5.55;4.28;;;19.00;99.90;;;;;;4982213;28;20231;-77
2023/08/17 00:45:10;;;;;;;4.95;3.92;;;19.00;99.90;;;;;;4982556;28;20651;-77
2023/08/17 00:47:38;;;;;;;7.05;4.18;;;19.00;99.90;;;;;;4986657;28;20208;-77
2023/08/17 00:50:09;;;;;;;5.45;3.97;;;18.90;99.90;;;;;;4988021;28;20204;-77
2023/08/17 00:52:36;;;;;;;4.57;3.70;;;18.80;99.90;;;;;;5005556;28;20228;-77
2023/08/17 00:55:04;;;;;;;4.22;3.83;;;18.90;99.90;;;;;;4978603;28;20193;-77
2023/08/17 00:57:33;;;;;;;4.35;3.95;;;19.00;99.90;;;;;;4983978;28;20197;-77
2023/08/17 01:00:54;;;;;;;4.38;3.92;;;19.00;99.90;;;;;;5003875;28;20204;-77
2023/08/17 01:03:24;;;;;;;4.63;4.10;;;19.00;99.90;;;;;;5005161;28;20200;-77
2023/08/17 01:05:52;;;;;;;4.00;3.67;;;18.90;99.90;;;;;;4992157;28;20226;-77
2023/08/17 01:08:20;;;;;;;3.67;3.35;;;18.90;99.90;;;;;;4993349;28;20564;-77
2023/08/17 01:10:56;;;;;;;8.85;4.50;;;19.00;99.90;;;;;;4989065;28;20195;-77
2023/08/17 01:13:31;;;;;;;4.75;3.60;;;19.00;99.90;;;;;;4987215;28;20201;-77
2023/08/17 01:16:03;;;;;;;4.07;3.53;;;19.00;99.90;;;;;;4987962;28;20200;-77
2023/08/17 01:18:35;;;;;;;3.80;3.30;;;19.10;99.90;;;;;;4993890;28;20215;-77
2023/08/17 01:21:07;;;;;;;5.28;4.30;;;19.10;99.90;;;;;;4998555;28;20197;-77
2023/08/17 01:23:38;;;;;;;4.10;3.70;;;19.00;99.90;;;;;;4993385;28;20203;-77
2023/08/17 01:26:05;;;;;;;5.47;3.95;;;19.00;99.90;;;;;;4994535;28;20642;-77
2023/08/17 01:28:33;;;;;;;4.90;3.80;;;18.90;99.90;;;;;;4992747;28;20207;-77
2023/08/17 01:31:09;;;;;;;4.80;4.40;;;18.70;99.90;;;;;;4988213;28;20694;-77
2023/08/17 01:33:45;;;;;;;5.35;3.85;;;18.70;99.90;;;;;;4990883;28;20200;-77
2023/08/17 01:36:17;;;;;;;5.53;4.28;;;18.60;99.90;;;;;;4989747;28;20555;-77
2023/08/17 01:38:47;;;;;;;5.53;4.15;;;18.50;99.90;;;;;;4990272;28;20208;-77
2023/08/17 01:41:16;;;;;;;5.75;4.20;;;18.50;99.90;;;;;;4995363;28;20308;-77
2023/08/17 01:43:47;;;;;;;6.20;4.00;;;18.50;99.90;;;;;;4992241;28;20193;-77
2023/08/17 01:46:15;;;;;;;5.88;4.40;;;18.60;99.90;;;;;;4988495;28;20204;-77
2023/08/17 01:48:42;;;;;;;5.28;4.35;;;18.70;99.90;;;;;;4991267;28;20212;-77
2023/08/17 01:51:11;;;;;;;5.80;4.10;;;18.80;99.90;;;;;;4986516;28;20667;-77
2023/08/17 01:53:38;;;;;;;4.63;4.20;;;18.60;99.90;;;;;;4998935;28;20200;-77
2023/08/17 01:56:07;;;;;;;6.82;4.53;;;18.60;99.90;;;;;;4992031;28;20196;-77
2023/08/17 01:58:35;;;;;;;5.20;4.47;;;18.60;99.90;;;;;;5008471;28;20201;-77
2023/08/17 02:01:02;;;;;;;4.65;4.05;;;18.70;99.90;;;;;;4987537;28;20200;-77
2023/08/17 02:03:30;;;;;;;5.75;4.13;;;18.70;99.90;;;;;;5001458;28;20578;-77
2023/08/17 02:05:57;;;;;;;4.88;4.35;;;18.70;99.90;;;;;;5006129;28;20197;-77
2023/08/17 02:08:25;;;;;;;5.95;4.05;;;18.70;99.90;;;;;;5004466;28;20215;-77
2023/08/17 02:10:54;;;;;;;4.70;4.07;;;18.80;99.90;;;;;;4988537;28;20201;-77
2023/08/17 02:13:27;;;;;;;4.97;4.22;;;18.80;99.90;;;;;;4986695;28;20224;-77
2023/08/17 02:15:55;;;;;;;7.78;4.70;;;18.50;99.90;;;;;;4993869;28;20184;-77
2023/08/17 02:18:23;;;;;;;8.20;4.47;;;18.60;99.90;;;;;;4990461;28;20207;-77
2023/08/17 02:20:51;;;;;;;6.32;4.25;;;18.50;99.90;;;;;;4990469;28;20196;-77
2023/08/17 02:23:18;;;;;;;6.22;3.88;;;18.60;99.90;;;;;;4991005;28;20547;-77
2023/08/17 02:25:46;;;;;;;6.05;4.30;;;18.70;99.90;;;;;;4990719;28;20200;-77
2023/08/17 02:28:14;;;;;;;4.72;4.28;;;18.60;99.90;;;;;;4989230;28;20553;-77
2023/08/17 02:30:44;;;;;;;4.68;4.22;;;18.60;99.90;;;;;;4992329;28;20207;-77
2023/08/17 02:33:11;;;;;;;6.28;4.53;;;18.70;99.90;;;;;;4990859;28;20219;-79
2023/08/17 02:35:39;;;;;;;4.60;4.20;;;18.50;99.90;;;;;;4991742;28;20211;-77
2023/08/17 02:38:06;;;;;;;5.57;4.25;;;18.60;99.90;;;;;;5008390;28;20205;-77
2023/08/17 02:40:33;;;;;;;7.47;4.13;;;18.80;99.90;;;;;;5016716;28;20568;-77
2023/08/17 02:43:01;;;;;;;5.03;4.53;;;18.80;99.90;;;;;;4995628;28;20208;-77
2023/08/17 02:45:29;;;;;;;7.20;4.70;;;18.80;99.90;;;;;;5008690;28;20674;-77
2023/08/17 02:48:00;;;;;;;4.53;4.00;;;18.90;99.90;;;;;;4991634;28;20212;-77
2023/08/17 02:50:27;;;;;;;6.28;4.38;;;18.90;99.90;;;;;;4990848;28;20211;-77
2023/08/17 02:52:54;;;;;;;6.45;4.25;;;18.80;99.90;;;;;;4978823;28;20224;-77
2023/08/17 02:55:22;;;;;;;5.78;4.75;;;18.90;99.90;;;;;;4980161;28;20200;-77
2023/08/17 02:57:49;;;;;;;5.20;4.63;;;18.80;99.90;;;;;;4988369;28;20216;-77
2023/08/17 03:00:17;;;;;;;5.20;4.15;;;18.80;99.90;;;;;;4983249;28;20207;-77
2023/08/17 03:02:44;;;;;;;5.32;4.28;;;18.70;99.90;;;;;;5005206;28;20238;-76
2023/08/17 03:05:13;;;;;;;9.25;4.47;;;18.80;99.90;;;;;;5008671;28;20208;-77
2023/08/17 03:07:40;;;;;;;6.38;4.40;;;18.90;99.90;;;;;;4990701;28;20201;-77
2023/08/17 03:10:09;;;;;;;7.13;4.40;;;19.00;99.90;;;;;;5042110;22;20218;-83
2023/08/17 03:12:37;;;;;;;5.95;4.25;;;19.00;99.90;;;;;;5033572;28;20224;-83
2023/08/17 03:15:05;;;;;;;5.78;4.57;;;18.80;99.90;;;;;;5030593;28;20195;-85
2023/08/17 03:17:32;;;;;;;6.63;4.30;;;18.90;99.90;;;;;;5048041;28;20197;-83
2023/08/17 03:20:00;;;;;;;4.40;4.00;;;18.90;99.90;;;;;;5023331;28;20227;-83
2023/08/17 03:22:32;;;;;;;5.30;4.78;;;19.00;99.90;;;;;;5004745;28;20656;-83
2023/08/17 03:24:59;;;;;;;5.38;4.03;;;18.90;99.90;;;;;;5013931;28;20191;-83
2023/08/17 03:27:28;;;;;;;4.50;4.10;;;18.90;99.90;;;;;;5034055;28;20554;-83
2023/08/17 03:29:56;;;;;;;4.80;3.92;;;18.90;99.90;;;;;;5014035;28;20231;-83
2023/08/17 03:32:23;;;;;;;5.22;4.05;;;18.90;99.90;;;;;;5024888;28;20727;-83
2023/08/17 03:34:51;;;;;;;6.32;4.10;;;18.90;99.90;;;;;;5010134;28;20203;-83
2023/08/17 03:37:19;;;;;;;5.90;4.10;;;18.90;99.90;;;;;;5011287;28;20202;-83
2023/08/17 03:39:47;;;;;;;4.78;4.20;;;18.80;99.90;;;;;;5012480;28;20231;-83
2023/08/17 03:42:15;;;;;;;5.00;4.07;;;18.80;99.90;;;;;;5009631;28;20561;-83
2023/08/17 03:44:42;;;;;;;5.25;4.07;;;18.80;99.90;;;;;;5031382;28;20217;-83
2023/08/17 03:47:10;;;;;;;4.90;3.95;;;18.70;99.90;;;;;;5007580;28;20676;-83
2023/08/17 03:49:37;;;;;;;5.40;3.92;;;18.70;99.90;;;;;;5008503;28;20238;-83
2023/08/17 03:52:05;;;;;;;5.18;4.50;;;18.70;99.90;;;;;;5001079;28;20567;-84
2023/08/17 03:54:33;;;;;;;5.65;4.50;;;18.70;99.90;;;;;;5031321;28;20198;-83
2023/08/17 03:57:02;;;;;;;6.32;4.15;;;18.70;99.90;;;;;;5008266;28;20215;-83
2023/08/17 03:59:29;;;;;;;5.40;3.63;;;18.60;99.90;;;;;;5014657;28;20611;-84
2023/08/17 04:01:57;;;;;;;4.85;4.40;;;18.60;99.90;;;;;;5016465;28;20202;-83
2023/08/17 04:04:24;;;;;;;7.13;4.40;;;18.60;99.90;;;;;;5011339;28;20661;-83
2023/08/17 04:06:52;;;;;;;6.45;5.22;;;18.50;99.90;;;;;;5017739;28;20215;-83
2023/08/17 04:09:19;;;;;;;7.90;5.32;;;18.60;99.90;;;;;;5020345;28;20230;-84
2023/08/17 04:11:51;;;;;;;6.53;4.63;;;18.60;99.90;;;;;;5010395;28;20208;-83
2023/08/17 04:14:20;;;;;;;7.57;5.05;;;18.60;99.90;;;;;;5016683;28;20206;-84
2023/08/17 04:16:49;;;;;;;6.13;4.72;;;18.60;99.90;;;;;;5015235;28;20534;-83
2023/08/17 04:19:16;;;;;;;5.22;4.75;;;18.60;99.90;;;;;;5012177;28;20227;-83
2023/08/17 04:21:44;;;;;;;5.30;4.38;;;18.50;99.90;;;;;;5010542;28;20203;-83
2023/08/17 04:24:11;;;;;;;7.72;4.85;;;18.50;99.90;;;;;;5014433;28;20195;-83
2023/08/17 04:26:39;;;;;;;5.65;4.05;;;18.60;99.90;;;;;;5031894;28;20194;-83
2023/08/17 04:29:07;;;;;;;7.97;5.18;;;18.60;99.90;;;;;;5015386;28;20226;-84
2023/08/17 04:31:36;;;;;;;7.40;5.43;;;18.60;99.90;;;;;;5007095;28;20214;-83
2023/08/17 04:34:04;;;;;;;8.20;5.60;;;18.50;99.90;;;;;;5025981;28;20207;-83
2023/08/17 04:36:32;;;;;;;7.32;5.38;;;18.50;99.90;;;;;;5016919;28;20201;-85
2023/08/17 04:38:59;;;;;;;5.95;5.03;;;18.50;99.90;;;;;;5021673;28;20194;-83
2023/08/17 04:41:27;;;;;;;7.47;5.53;;;18.60;99.90;;;;;;5015364;28;20206;-83
2023/08/17 04:43:56;;;;;;;5.88;4.68;;;18.50;99.90;;;;;;5024248;28;20187;-83
2023/08/17 04:46:23;;;;;;;7.47;5.40;;;18.40;99.90;;;;;;5019779;28;20201;-85
2023/08/17 04:48:52;;;;;;;8.60;5.03;;;18.60;99.90;;;;;;5024321;28;20202;-83
2023/08/17 04:51:23;;;;;;;5.28;4.63;;;18.40;99.90;;;;;;5012386;28;20199;-83
2023/08/17 04:53:51;;;;;;;5.63;5.07;;;18.50;99.90;;;;;;5009917;28;20219;-83
2023/08/17 04:56:27;;;;;;;7.32;5.00;;;18.50;99.90;;;;;;5017153;28;20199;-83
2023/08/17 04:58:55;;;;;;;6.03;5.43;;;18.50;99.90;;;;;;5020844;28;20197;-83
2023/08/17 05:01:23;;;;;;;10.25;5.68;;;18.20;99.90;;;;;;5020620;28;20194;-83
2023/08/17 05:03:52;;;;;;;7.82;5.60;;;18.30;99.90;;;;;;5023700;28;20191;-83
2023/08/17 05:06:20;;;;;;;7.88;5.30;;;18.30;99.90;;;;;;5006692;28;20207;-82
2023/08/17 05:08:47;;;;;;;5.85;5.25;;;18.30;99.90;;;;;;5017549;28;20195;-82
2023/08/17 05:11:15;;;;;;;8.88;5.13;;;18.30;99.90;;;;;;5014274;28;20543;-82
2023/08/17 05:13:42;;;;;;;6.50;5.85;;;18.30;99.90;;;;;;5016011;28;20227;-82
2023/08/17 05:16:11;;;;;;;7.78;5.35;;;18.30;99.90;;;;;;5026152;28;20669;-82
2023/08/17 05:18:45;;;;;;;8.07;5.45;;;18.40;99.90;;;;;;5006768;28;20201;-82
2023/08/17 05:21:31;;;;;;;7.25;5.03;;;18.40;99.90;;;;;;5012647;28;20225;-83
2023/08/17 05:23:58;;;;;;;6.22;4.82;;;18.50;99.90;;;;;;5009672;28;20609;-82
2023/08/17 05:26:26;;;;;;;6.80;4.72;;;18.60;99.90;;;;;;5019397;28;20211;-82
2023/08/17 05:28:54;;;;;;;6.22;5.22;;;18.60;99.90;;;;;;5015582;28;20199;-82
2023/08/17 05:31:21;;;;;;;7.10;5.07;;;18.50;99.90;;;;;;5018348;28;20203;-81
2023/08/17 05:33:50;;;;;;;7.38;5.05;;;18.40;99.90;;;;;;5016291;28;20225;-82
2023/08/17 05:36:19;;;;;;;8.88;5.68;;;18.40;99.90;;;;;;5030742;28;20205;-82
2023/08/17 05:38:49;;;;;;;8.63;5.10;;;18.40;99.90;;;;;;5016445;28;20203;-82
2023/08/17 05:41:17;;;;;;;6.80;5.10;;;18.30;99.90;;;;;;5010703;28;20204;-82
2023/08/17 05:43:48;;;;;;;7.95;5.07;;;18.40;99.90;;;;;;5036560;28;20195;-82
2023/08/17 05:46:20;;;;;;;7.60;5.65;;;18.40;99.90;;;;;;5013579;28;20571;-83
2023/08/17 05:48:48;;;;;;;5.43;4.40;;;18.40;99.90;;;;;;5012748;28;20195;-84
2023/08/17 05:51:15;;;;;;;5.93;5.35;;;18.70;99.90;;;;;;5012768;28;20195;-84
2023/08/17 05:53:44;;;;;;;5.43;4.72;;;18.80;99.90;;;;;;5009440;28;20219;-85
2023/08/17 05:56:13;;;;;;;6.90;3.97;;;18.70;99.90;;;;;;5008687;28;20206;-85
2023/08/17 05:58:40;;;;;;;5.60;4.10;;;19.20;99.90;;;;;;5031561;28;20195;-85
2023/08/17 06:01:08;;;;;;;5.53;3.20;;;19.40;99.90;;;;;;5022509;28;20222;-84
2023/08/17 06:03:36;;;;;;;4.88;4.38;;;19.70;99.90;;;;;;5017425;28;20202;-85
2023/08/17 06:06:05;;;;;;;7.45;4.22;;;19.70;99.90;;;;;;5016906;28;20210;-85
2023/08/17 06:08:41;;;;;;;5.90;4.45;;;19.60;99.90;;;;;;5035907;28;20202;-83
2023/08/17 06:11:09;;;;;;;5.35;3.40;;;19.60;99.90;;;;;;5005260;28;20958;-85
2023/08/17 06:13:38;;;;;;;6.90;4.63;;;19.70;99.90;;;;;;5015368;28;20214;-86
2023/08/17 06:16:13;;;;;;;6.43;4.18;;;19.40;99.90;;;;;;5014778;28;20199;-86
2023/08/17 06:18:42;;;;;;;5.03;3.70;;;19.70;99.90;;;;;;5015269;28;20198;-86
2023/08/17 06:21:09;;;;;;;8.98;5.35;;;19.70;99.90;;;;;;5010690;28;20223;-85
2023/08/17 06:23:42;;;;;;;6.63;5.70;;;19.60;99.90;;;;;;5021567;28;20213;-86
2023/08/17 06:26:09;;;;;;;5.95;4.90;;;19.10;99.90;;;;;;5017435;28;20198;-85
2023/08/17 06:28:38;;;;;;;7.05;6.35;;;19.40;99.90;;;;;;5031560;28;20199;-85
2023/08/17 06:31:05;;;;;;;11.20;5.40;;;19.40;99.90;;;;;;5013179;28;20222;-85
2023/08/17 06:33:40;;;;;;;5.50;5.00;;;19.50;99.90;;;;;;5000992;28;20570;-85
2023/08/17 06:36:52;;;;;;;6.30;5.30;;;19.60;99.90;;;;;;5021516;28;20194;-86
2023/08/17 06:39:19;;;;;;;9.10;5.95;;;19.70;99.90;;;;;;5030686;28;20211;-85
2023/08/17 06:41:50;;;;;;;9.68;5.63;;;19.50;99.90;;;;;;4998175;28;20204;-85
2023/08/17 06:44:18;;;;;;;8.55;7.07;;;19.60;99.90;;;;;;5008607;28;20207;-86
2023/08/17 06:46:46;;;;;;;8.55;6.20;;;19.50;99.90;;;;;;5014351;28;20202;-86
2023/08/17 06:53:17;;;;;;;7.70;6.78;;;19.30;99.90;;;;;;4969399;28;20684;-85
2023/08/17 06:55:45;;;;;;;12.52;7.72;;;19.50;99.90;;;;;;5000047;28;20203;-86
2023/08/17 06:58:13;;;;;;;9.13;7.10;;;19.10;99.90;;;;;;5035357;28;20224;-85
2023/08/17 07:00:43;;;;;;;10.07;5.90;;;19.30;99.90;;;;;;5033182;28;20215;-85
2023/08/17 07:03:11;;;;;;;9.02;7.18;;;19.50;99.90;;;;;;5006955;28;20206;-85
2023/08/17 07:05:41;;;;;;;9.68;6.97;;;18.80;99.90;;;;;;5001512;28;20207;-82
2023/08/17 07:08:09;;;;;;;10.38;7.07;;;19.30;99.90;;;;;;5010553;28;20202;-84
2023/08/17 07:10:50;;;;;;;10.05;7.03;;;19.70;99.90;;;;;;5025759;28;20227;-84
2023/08/17 07:13:17;;;;;;;8.07;7.18;;;19.70;99.90;;;;;;5011227;28;20255;-84
2023/08/17 07:15:46;;;;;;;9.98;7.70;;;19.50;99.90;;;;;;5004968;28;20229;-83
2023/08/17 07:18:13;;;;;;;7.53;6.72;;;19.60;99.90;;;;;;5008355;28;20226;-82
2023/08/17 07:20:41;;;;;;;10.25;8.32;;;19.80;99.90;;;;;;5005130;28;20215;-83
2023/08/17 07:23:08;;;;;;;9.43;8.43;;;19.70;99.90;;;;;;5010596;28;20195;-84
2023/08/17 07:25:51;;;;;;;10.80;8.05;;;19.80;99.90;;;;;;5039319;28;20198;-83
2023/08/17 07:28:18;;;;;;;13.68;8.52;;;19.60;99.90;;;;;;5009443;28;20661;-85
2023/08/17 07:30:47;;;;;;;13.82;10.32;;;19.40;99.90;;;;;;5006695;28;20223;-84
2023/08/17 07:33:15;;;;;;;13.32;8.30;;;19.20;99.90;;;;;;5024801;28;20196;-83
2023/08/17 07:35:49;;;;;;;13.10;10.57;;;19.40;99.90;;;;;;5013137;28;20222;-87
2023/08/17 07:38:30;;;;;;;13.02;9.25;;;19.60;99.90;;;;;;5022827;28;20195;-84
2023/08/17 07:40:57;;;;;;;11.68;8.18;;;19.40;99.90;;;;;;5006570;28;20755;-84
2023/08/17 07:43:25;;;;;;;15.00;10.43;;;19.70;99.90;;;;;;5010999;28;20204;-84
2023/08/17 07:45:58;;;;;;;13.13;9.98;;;19.80;99.90;;;;;;5011652;28;20198;-83
2023/08/17 07:48:25;;;;;;;13.85;9.25;;;19.60;99.90;;;;;;5009824;28;20195;-82
2023/08/17 07:51:12;;;;;;;14.23;10.18;;;19.50;99.90;;;;;;5031865;28;20833;-83
2023/08/17 07:53:40;;;;;;;22.27;12.77;;;19.70;99.90;;;;;;5012001;28;20206;-82
2023/08/17 07:56:08;;;;;;;11.70;9.70;;;19.80;99.90;;;;;;5019215;28;20211;-81
2023/08/17 07:58:35;;;;;;;11.77;9.25;;;19.90;99.90;;;;;;5012975;28;20206;-81
2023/08/17 08:01:05;;;;;;;14.23;10.52;;;20.00;99.90;;;;;;5012632;28;20242;-82
2023/08/17 08:03:42;;;;;;;17.13;10.98;;;20.10;99.90;;;;;;5037936;28;20203;-83
2023/08/17 08:06:10;;;;;;;14.00;10.52;;;19.40;99.90;;;;;;5009405;28;20198;-81
2023/08/17 08:08:37;;;;;;;13.07;10.95;;;19.20;99.90;;;;;;5030704;28;20205;-80
2023/08/17 08:11:05;;;;;;;14.77;11.45;;;19.10;99.90;;;;;;5013187;28;20230;-81
2023/08/17 08:13:32;;;;;;;14.30;9.55;;;19.30;99.90;;;;;;5034231;28;20203;-80
2023/08/17 08:16:05;;;;;;;15.82;10.60;;;19.70;99.90;;;;;;5010070;28;20214;-81
2023/08/17 08:18:32;;;;;;;16.92;10.63;;;20.00;99.90;;;;;;5035585;28;22980;-81
2023/08/17 08:20:59;;;;;;;16.38;10.77;;;20.00;99.90;;;;;;5013976;28;20214;-81
2023/08/17 08:23:27;;;;;;;14.25;10.65;;;20.10;99.90;;;;;;5038594;28;20620;-81
2023/08/17 08:25:58;;;;;;;16.27;12.52;;;20.20;99.90;;;;;;5025206;28;20187;-81
2023/08/17 08:28:25;;;;;;;19.35;14.07;;;20.20;99.90;;;;;;5009351;28;20207;-81
2023/08/17 08:30:53;;;;;;;22.85;13.93;;;20.20;99.90;;;;;;5009152;28;20228;-81
2023/08/17 08:33:22;;;;;;;22.67;15.55;;;19.70;99.90;;;;;;5033211;28;20191;-84
2023/08/17 08:35:49;;;;;;;23.67;15.15;;;19.60;99.90;;;;;;5035369;28;20664;-84
2023/08/17 08:38:17;;;;;;;18.40;15.43;;;19.50;99.90;;;;;;5017326;28;20206;-83
2023/08/17 08:40:47;;;;;;;18.52;15.85;;;19.50;99.90;;;;;;5018722;28;20580;-84
2023/08/17 08:43:15;;;;;;;21.38;14.93;;;19.50;99.90;;;;;;5015329;28;20206;-84
2023/08/17 08:45:44;;;;;;;21.23;14.77;;;19.50;99.90;;;;;;5025997;28;20223;-83
2023/08/17 08:48:12;;;;;;;18.15;13.90;;;19.60;99.90;;;;;;5029599;28;20203;-84
2023/08/17 08:50:42;;;;;;;15.02;13.27;;;19.60;99.90;;;;;;5018062;28;20223;-84
2023/08/17 08:53:14;;;;;;;16.38;12.77;;;19.40;99.90;;;;;;5015822;28;20203;-84
2023/08/17 08:55:50;;;;;;;15.15;13.68;;;19.40;99.90;;;;;;5026570;28;20237;-84
2023/08/17 08:58:18;;;;;;;15.90;13.75;;;19.40;99.90;;;;;;5018780;28;21388;-84
2023/08/17 09:00:47;;;;;;;17.25;14.50;;;19.50;99.90;;;;;;5018360;28;20228;-84
2023/08/17 09:03:17;;;;;;;20.88;14.80;;;19.50;99.90;;;;;;5011556;28;20206;-83
2023/08/17 09:05:49;;;;;;;20.80;15.98;;;19.50;99.90;;;;;;5034537;28;20198;-83
2023/08/17 09:08:16;;;;;;;18.92;15.65;;;19.30;99.90;;;;;;5018540;28;20214;-84
2023/08/17 09:10:44;;;;;;;21.35;15.32;;;19.30;99.90;;;;;;5011313;28;20227;-83
2023/08/17 09:13:11;;;;;;;19.23;15.40;;;19.40;99.90;;;;;;5019214;28;20568;-83
2023/08/17 09:15:39;;;;;;;19.20;14.98;;;19.40;99.90;;;;;;5014295;28;20249;-83
2023/08/17 09:18:07;;;;;;;15.63;13.13;;;19.30;99.90;;;;;;5023146;28;20196;-83
2023/08/17 09:20:39;;;;;;;16.58;12.90;;;19.40;99.90;;;;;;5006203;28;20215;-83
2023/08/17 09:23:14;;;;;;;13.70;11.95;;;19.60;99.90;;;;;;5016345;28;20210;-83
2023/08/17 09:25:43;;;;;;;13.48;11.55;;;19.60;99.90;;;;;;5040848;28;20197;-83
2023/08/17 09:28:13;;;;;;;15.77;11.90;;;19.70;99.90;;;;;;5019011;28;20204;-83
2023/08/17 09:30:56;;;;;;;15.90;12.00;;;19.50;99.90;;;;;;5017153;28;20215;-83
2023/08/17 09:33:24;;;;;;;12.85;11.30;;;19.60;99.90;;;;;;5028859;28;20198;-83
2023/08/17 09:35:53;;;;;;;11.63;9.82;;;19.50;99.90;;;;;;5018337;28;20696;-83
2023/08/17 09:38:22;;;;;;;11.68;10.23;;;19.60;99.90;;;;;;5023573;28;20215;-83
2023/08/17 09:40:49;;;;;;;15.75;10.95;;;19.70;99.90;;;;;;5011469;28;20215;-83
2023/08/17 09:43:18;;;;;;;11.27;9.95;;;19.60;99.90;;;;;;5014859;28;20564;-83
2023/08/17 09:45:47;;;;;;;12.13;8.73;;;20.00;99.90;;;;;;5023680;28;20203;-83
2023/08/17 09:48:17;;;;;;;12.13;8.88;;;20.20;99.90;;;;;;5013025;28;20211;-84
2023/08/17 09:53:55;;;;;;;13.32;10.73;;;20.20;99.90;;;;;;5026023;28;20206;-83
2023/08/17 09:56:24;;;;;;;15.73;11.32;;;20.00;99.90;;;;;;5013562;28;20562;-83
2023/08/17 09:58:53;;;;;;;12.98;11.15;;;20.10;99.90;;;;;;5027931;28;20214;-83
2023/08/17 10:01:34;;;;;;;14.35;12.57;;;20.10;99.90;;;;;;5012178;28;20218;-83
2023/08/17 10:04:05;;;;;;;16.75;12.68;;;20.10;99.90;;;;;;5005312;28;20208;-83
2023/08/17 10:06:34;;;;;;;16.85;13.20;;;20.10;99.90;;;;;;5007725;28;20231;-83
2023/08/17 10:09:03;;;;;;;16.02;13.18;;;19.90;99.90;;;;;;5030840;28;20211;-83
2023/08/17 10:11:35;;;;;;;22.58;14.00;;;20.00;99.90;;;;;;5020163;28;20207;-83
2023/08/17 10:14:08;;;;;;;20.67;15.35;;;19.80;99.90;;;;;;5007986;28;20210;-83
2023/08/17 10:16:44;;;;;;;21.98;16.83;;;19.90;99.90;;;;;;5004062;28;20271;-85
2023/08/17 10:19:18;;;;;;;24.63;17.60;;;19.80;99.90;;;;;;5016720;28;20226;-85
2023/08/17 10:21:55;;;;;;;26.50;17.65;;;19.80;99.90;;;;;;5008333;28;20199;-85
2023/08/17 10:24:24;;;;;;;21.90;17.13;;;19.80;99.90;;;;;;5001208;28;20571;-85
2023/08/17 10:26:53;;;;;;;22.95;16.23;;;19.80;99.90;;;;;;5011825;28;20199;-85
2023/08/17 10:29:23;;;;;;;20.88;15.98;;;19.70;99.90;;;;;;5017396;28;20223;-85
2023/08/17 10:31:51;;;;;;;20.08;16.08;;;19.70;99.90;;;;;;5040836;28;20206;-85
2023/08/17 10:34:20;;;;;;;21.05;16.05;;;19.80;99.90;;;;;;5035473;28;20195;-85
2023/08/17 10:36:48;;;;;;;22.17;16.45;;;19.80;99.90;;;;;;5011230;28;20223;-85
2023/08/17 10:39:21;;;;;;;22.50;18.10;;;19.80;99.90;;;;;;5012910;28;20229;-86
2023/08/17 10:41:51;;;;;;;22.55;17.73;;;19.90;99.90;;;;;;5012297;28;20214;-85
2023/08/17 10:44:38;;;;;;;34.47;25.10;;;20.00;99.90;;;;;;5023378;28;20207;-85
2023/08/17 10:47:20;;;;;;;26.75;20.85;;;19.90;99.90;;;;;;5018538;28;20221;-86
2023/08/17 10:49:49;;;;;;;29.38;21.48;;;19.90;99.90;;;;;;5025112;28;20237;-86
2023/08/17 10:52:27;;;;;;;21.50;17.30;;;19.90;99.90;;;;;;5010488;28;20226;-86
2023/08/17 10:54:55;;;;;;;22.05;17.17;;;20.00;99.90;;;;;;5014478;28;20206;-85
2023/08/17 10:57:36;;;;;;;21.23;17.15;;;20.20;99.90;;;;;;5031064;28;20211;-85
2023/08/17 11:00:21;;;;;;;20.40;16.58;;;20.10;99.90;;;;;;5008900;28;20226;-86
2023/08/17 11:02:55;;;;;;;19.65;16.10;;;20.10;99.90;;;;;;5013461;28;20214;-85
2023/08/17 11:05:39;;;;;;;18.73;15.18;;;20.10;99.90;;;;;;5007841;28;20206;-86
2023/08/17 11:08:08;;;;;;;24.80;17.88;;;20.30;99.90;;;;;;5026046;28;20199;-85
2023/08/17 11:10:35;;;;;;;24.20;17.08;;;20.30;99.90;;;;;;5009638;28;20238;-86
2023/08/17 11:13:06;;;;;;;23.85;16.60;;;20.30;99.90;;;;;;5009235;28;20215;-85
2023/08/17 11:15:39;;;;;;;19.23;15.90;;;20.40;99.90;;;;;;5010227;28;20608;-85
2023/08/17 11:18:08;;;;;;;18.95;16.35;;;20.40;99.90;;;;;;5010862;28;20198;-85
2023/08/17 11:20:36;;;;;;;18.33;14.68;;;20.40;99.90;;;;;;5015161;28;20237;-85
2023/08/17 11:23:05;;;;;;;19.88;15.27;;;20.40;99.90;;;;;;5015093;28;20657;-85
2023/08/17 11:25:34;;;;;;;18.45;14.65;;;20.40;99.90;;;;;;5010225;28;20213;-85
2023/08/17 11:28:02;;;;;;;18.70;13.35;;;20.30;99.90;;;;;;5010978;28;20207;-86
2023/08/17 11:30:33;;;;;;;15.05;13.45;;;20.30;99.90;;;;;;5021643;28;20223;-85
2023/08/17 11:33:01;;;;;;;14.80;13.07;;;20.30;99.90;;;;;;5023432;28;20206;-85
2023/08/17 11:35:28;;;;;;;15.63;13.07;;;20.40;99.90;;;;;;5010932;28;20214;-86
2023/08/17 11:37:56;;;;;;;18.02;13.90;;;20.40;99.90;;;;;;5009039;28;20223;-85
2023/08/17 11:40:23;;;;;;;16.83;12.88;;;20.40;99.90;;;;;;5005661;28;20222;-86
2023/08/17 11:42:51;;;;;;;15.32;12.23;;;20.40;99.90;;;;;;5010475;28;20210;-88
2023/08/17 11:45:20;;;;;;;14.25;11.98;;;20.40;99.90;;;;;;5013510;28;20675;-87
2023/08/17 11:47:50;;;;;;;15.38;12.25;;;20.20;99.90;;;;;;5009330;28;20202;-86
2023/08/17 11:50:19;;;;;;;14.82;11.77;;;20.30;99.90;;;;;;5023122;28;20230;-86
2023/08/17 11:52:46;;;;;;;13.73;11.63;;;20.20;99.90;;;;;;5018918;28;20206;-86
2023/08/17 11:55:18;;;;;;;14.73;12.43;;;20.20;99.90;;;;;;5007493;28;20207;-86
2023/08/17 11:57:48;;;;;;;17.02;14.30;;;20.20;99.90;;;;;;5016789;28;20222;-86
2023/08/17 12:00:20;;;;;;;13.27;11.88;;;20.30;99.90;;;;;;5010567;28;20227;-86
2023/08/17 12:02:52;;;;;;;16.73;12.30;;;20.20;99.90;;;;;;5014911;28;20206;-86
2023/08/17 12:05:24;;;;;;;15.65;13.15;;;20.20;99.90;;;;;;5017500;28;20203;-86
2023/08/17 12:07:54;;;;;;;15.68;12.65;;;20.20;99.90;;;;;;5009417;28;20550;-86
2023/08/17 12:10:23;;;;;;;14.52;12.70;;;20.20;99.90;;;;;;5008199;28;20235;-86
2023/08/17 12:12:50;;;;;;;15.98;12.52;;;20.20;99.90;;;;;;5015033;28;20670;-86
2023/08/17 12:15:18;;;;;;;14.07;12.65;;;20.10;99.90;;;;;;5006334;28;20664;-86
2023/08/17 12:17:47;;;;;;;17.08;13.43;;;20.20;99.90;;;;;;5014188;28;20314;-86
2023/08/17 12:20:20;;;;;;;15.45;13.57;;;20.20;99.90;;;;;;5009750;28;20596;-86
2023/08/17 12:22:48;;;;;;;15.95;13.18;;;20.10;99.90;;;;;;5001830;28;20204;-86
2023/08/17 12:25:16;;;;;;;16.70;14.20;;;20.30;99.90;;;;;;5032655;28;20206;-86
2023/08/17 12:27:44;;;;;;;16.55;14.80;;;20.30;99.90;;;;;;5025202;28;20218;-86
2023/08/17 12:30:25;;;;;;;17.73;15.02;;;20.40;99.90;;;;;;5022932;28;20688;-86
2023/08/17 12:32:52;;;;;;;19.00;16.10;;;20.50;99.90;;;;;;5006437;28;20219;-83
2023/08/17 12:35:23;;;;;;;20.05;16.58;;;20.40;99.90;;;;;;5023192;28;20215;-83
2023/08/17 12:37:51;;;;;;;16.83;14.45;;;20.50;99.90;;;;;;5021613;28;20226;-84
2023/08/17 12:40:23;;;;;;;16.27;13.70;;;20.50;99.90;;;;;;5028573;28;20230;-85
2023/08/17 12:42:59;;;;;;;21.08;17.50;;;20.60;99.90;;;;;;5001099;28;20212;-85
2023/08/17 12:46:04;;;;;;;21.02;18.13;;;20.70;99.90;;;;;;5013938;28;20199;-84
2023/08/17 12:48:32;;;;;;;23.48;19.40;;;20.50;99.90;;;;;;5026148;28;20201;-85
2023/08/17 12:51:00;;;;;;;22.83;18.55;;;20.50;99.90;;;;;;5013925;28;20226;-84
2023/08/17 12:53:28;;;;;;;25.17;20.67;;;20.80;99.90;;;;;;4997362;28;20203;-85
2023/08/17 12:55:55;;;;;;;24.30;19.02;;;20.80;99.90;;;;;;5033439;28;20195;-85
2023/08/17 12:58:28;;;;;;;21.42;18.15;;;20.90;99.90;;;;;;5017315;28;20214;-85